Time;durP1;ratioP1;P1;durP2;ratioP2;P2;SDS_P1;SDS_P2;PMS_P1;PMS_P2;Temp;Humidity;BMP_temperature;BMP_pressure;BME280_temperature;BME280_humidity;BME280_pressure;Samples;Min_cycle;Max_cycle;Signal;HPM_P1;HPM_P2
2023/06/01 00:00:14;;;;;;;8.13;4.13;;;20.40;56.90;;;;;;5095274;28;20448;-56
2023/06/01 00:02:40;;;;;;;5.00;4.07;;;20.40;57.20;;;;;;5095123;28;20447;-56
2023/06/01 00:05:08;;;;;;;5.43;4.10;;;20.30;57.50;;;;;;5094591;28;20444;-56
2023/06/01 00:07:36;;;;;;;7.77;4.40;;;20.30;57.70;;;;;;5095140;28;20455;-56
2023/06/01 00:10:03;;;;;;;4.57;4.17;;;20.30;58.10;;;;;;5094734;28;20833;-56
2023/06/01 00:12:29;;;;;;;7.07;4.40;;;20.20;58.30;;;;;;5095017;28;20460;-56
2023/06/01 00:14:57;;;;;;;6.17;3.83;;;20.20;58.60;;;;;;5095643;28;20458;-56
2023/06/01 00:17:24;;;;;;;6.10;3.90;;;20.20;58.80;;;;;;5095802;28;20495;-56
2023/06/01 00:19:52;;;;;;;9.10;4.37;;;20.10;59.00;;;;;;5095955;28;20451;-56
2023/06/01 00:22:20;;;;;;;6.03;4.67;;;20.10;59.10;;;;;;5095212;28;20447;-56
2023/06/01 00:24:48;;;;;;;7.23;4.70;;;20.10;59.40;;;;;;5094957;28;20858;-56
2023/06/01 00:27:14;;;;;;;5.60;4.27;;;20.00;59.50;;;;;;5094731;28;20468;-56
2023/06/01 00:29:41;;;;;;;9.03;4.70;;;20.00;59.70;;;;;;5094792;28;20452;-56
2023/06/01 00:32:08;;;;;;;6.47;4.80;;;20.00;59.90;;;;;;5094911;28;20455;-56
2023/06/01 00:34:35;;;;;;;7.90;4.73;;;20.00;60.20;;;;;;5094690;28;20487;-56
2023/06/01 00:37:01;;;;;;;8.57;5.47;;;20.00;60.50;;;;;;5094524;28;20493;-56
2023/06/01 00:39:28;;;;;;;9.67;5.30;;;20.00;60.40;;;;;;5094649;28;20455;-56
2023/06/01 00:41:56;;;;;;;8.50;4.10;;;20.00;60.80;;;;;;5094516;28;20451;-56
2023/06/01 00:44:23;;;;;;;15.50;5.23;;;19.90;60.80;;;;;;5094238;28;20942;-56
2023/06/01 00:46:51;;;;;;;10.17;4.17;;;19.90;61.20;;;;;;5094164;28;20977;-56
2023/06/01 00:49:18;;;;;;;8.67;4.87;;;19.80;61.00;;;;;;5094725;28;20440;-56
2023/06/01 00:51:45;;;;;;;8.57;4.73;;;19.80;61.30;;;;;;5094351;28;20440;-56
2023/06/01 00:54:11;;;;;;;6.13;5.43;;;19.80;62.00;;;;;;5094370;28;20475;-56
2023/06/01 00:56:38;;;;;;;7.13;4.00;;;19.70;62.30;;;;;;5094388;28;20475;-56
2023/06/01 00:59:06;;;;;;;7.07;5.17;;;19.70;62.50;;;;;;5093912;28;20825;-56
2023/06/01 01:01:33;;;;;;;4.93;4.40;;;19.70;62.80;;;;;;5094077;28;20937;-56
2023/06/01 01:04:00;;;;;;;7.77;5.43;;;19.60;63.20;;;;;;5094211;28;20444;-56
2023/06/01 01:06:48;;;;;;;8.20;5.20;;;19.60;63.50;;;;;;5094179;28;20468;-56
2023/06/01 01:09:24;;;;;;;8.23;5.93;;;19.50;63.90;;;;;;5094135;28;20431;-56
2023/06/01 01:11:58;;;;;;;9.23;6.47;;;19.40;64.20;;;;;;5093932;28;20462;-56
2023/06/01 01:14:30;;;;;;;6.80;5.20;;;19.40;64.60;;;;;;5094002;28;20459;-56
2023/06/01 01:17:03;;;;;;;6.47;5.40;;;19.40;65.00;;;;;;5093649;28;20977;-56
2023/06/01 01:19:50;;;;;;;9.30;6.00;;;19.40;65.40;;;;;;5093910;28;20428;-56
2023/06/01 01:22:26;;;;;;;7.67;5.60;;;19.30;65.50;;;;;;5093819;28;20428;-56
2023/06/01 01:25:18;;;;;;;10.70;6.93;;;19.30;65.80;;;;;;5094017;28;20430;-56
2023/06/01 01:27:55;;;;;;;6.17;5.30;;;19.20;65.90;;;;;;5093518;28;20906;-56
2023/06/01 01:30:27;;;;;;;6.53;5.87;;;19.20;66.00;;;;;;5093771;28;20813;-56
2023/06/01 01:32:56;;;;;;;6.00;5.07;;;19.20;66.10;;;;;;5093681;28;20865;-56
2023/06/01 01:35:24;;;;;;;6.13;5.53;;;19.20;66.30;;;;;;5093643;28;20862;-56
2023/06/01 01:37:52;;;;;;;11.40;6.40;;;19.20;66.70;;;;;;5093615;28;20497;-56
2023/06/01 01:40:19;;;;;;;10.17;6.47;;;19.10;66.80;;;;;;5093616;28;20477;-56
2023/06/01 01:42:46;;;;;;;7.27;6.03;;;19.10;67.10;;;;;;5093592;28;20450;-56
2023/06/01 01:45:13;;;;;;;7.03;5.80;;;19.00;67.30;;;;;;5093547;28;20440;-56
2023/06/01 01:47:49;;;;;;;7.60;6.90;;;19.00;67.50;;;;;;5093526;28;20447;-56
2023/06/01 01:50:20;;;;;;;6.60;5.70;;;19.00;67.80;;;;;;5093136;28;20917;-56
2023/06/01 01:52:48;;;;;;;12.50;6.90;;;19.00;67.80;;;;;;5093510;28;20431;-56
2023/06/01 01:55:18;;;;;;;10.17;6.80;;;18.90;68.00;;;;;;5093332;28;20480;-56
2023/06/01 01:57:46;;;;;;;8.90;6.33;;;18.90;68.10;;;;;;5093383;28;20444;-56
2023/06/01 02:00:13;;;;;;;7.40;6.57;;;18.90;68.30;;;;;;5093451;28;20444;-56
2023/06/01 02:02:42;;;;;;;8.47;6.80;;;18.80;68.10;;;;;;5093419;28;20452;-56
2023/06/01 02:05:08;;;;;;;8.97;6.93;;;18.80;68.30;;;;;;5093251;28;20455;-56
2023/06/01 02:07:35;;;;;;;10.13;7.00;;;18.80;68.30;;;;;;5093270;28;20451;-56
2023/06/01 02:10:02;;;;;;;8.30;7.07;;;18.70;69.20;;;;;;5093256;28;20451;-56
2023/06/01 02:12:29;;;;;;;9.67;7.27;;;18.70;68.60;;;;;;5092922;28;20456;-56
2023/06/01 02:14:55;;;;;;;12.70;7.60;;;18.60;68.60;;;;;;5093128;28;20488;-56
2023/06/01 02:17:25;;;;;;;9.20;7.57;;;18.60;68.60;;;;;;5092917;28;20984;-56
2023/06/01 02:19:53;;;;;;;8.87;7.97;;;18.60;68.70;;;;;;5093190;28;20456;-56
2023/06/01 02:22:19;;;;;;;9.50;7.37;;;18.50;68.70;;;;;;5092882;28;20454;-55
2023/06/01 02:24:47;;;;;;;9.73;7.27;;;18.50;68.90;;;;;;5093110;28;20443;-55
2023/06/01 02:27:13;;;;;;;12.73;8.13;;;18.40;69.00;;;;;;5094778;28;20464;-55
2023/06/01 02:29:40;;;;;;;11.93;7.47;;;18.40;69.30;;;;;;5097072;28;20516;-55
2023/06/01 02:32:07;;;;;;;10.03;7.90;;;18.30;69.70;;;;;;5097026;28;20452;-55
2023/06/01 02:34:36;;;;;;;12.70;9.17;;;18.20;69.70;;;;;;5096927;28;20488;-55
2023/06/01 02:37:04;;;;;;;10.87;8.33;;;18.20;70.10;;;;;;5097043;28;20464;-55
2023/06/01 02:39:31;;;;;;;11.90;8.70;;;18.20;70.40;;;;;;5096905;28;20448;-55
2023/06/01 02:41:57;;;;;;;9.47;8.43;;;18.10;70.40;;;;;;5096840;28;20441;-55
2023/06/01 02:44:24;;;;;;;13.17;9.53;;;18.10;70.40;;;;;;5096778;28;20471;-57
2023/06/01 02:46:51;;;;;;;10.70;8.87;;;18.10;70.60;;;;;;5096616;28;20468;-56
2023/06/01 02:49:17;;;;;;;15.17;9.40;;;18.00;70.40;;;;;;5096901;28;20493;-56
2023/06/01 02:51:44;;;;;;;15.40;10.40;;;17.90;70.70;;;;;;5096682;28;20448;-56
2023/06/01 02:54:12;;;;;;;11.40;9.80;;;17.90;71.50;;;;;;5096198;28;20479;-56
2023/06/01 02:56:39;;;;;;;12.33;9.60;;;17.90;71.30;;;;;;5096441;28;20524;-56
2023/06/01 02:59:06;;;;;;;13.40;10.17;;;17.80;71.60;;;;;;5096604;28;20450;-55
2023/06/01 03:01:35;;;;;;;14.60;10.60;;;17.80;71.70;;;;;;5096530;28;20458;-55
2023/06/01 03:04:03;;;;;;;12.17;9.60;;;17.80;71.90;;;;;;5096422;28;20500;-56
2023/06/01 03:06:31;;;;;;;13.17;11.37;;;17.80;71.80;;;;;;5096309;28;20524;-56
2023/06/01 03:08:58;;;;;;;13.10;10.03;;;17.80;72.00;;;;;;5096123;28;20949;-56
2023/06/01 03:11:26;;;;;;;15.37;11.27;;;17.70;71.90;;;;;;5095832;28;20977;-56
2023/06/01 03:13:53;;;;;;;11.43;10.10;;;17.70;72.00;;;;;;5095817;28;21036;-56
2023/06/01 03:16:19;;;;;;;15.20;10.70;;;17.70;72.20;;;;;;5096188;28;20474;-56
2023/06/01 03:18:46;;;;;;;12.80;10.93;;;17.60;72.20;;;;;;5096336;28;20444;-56
2023/06/01 03:21:13;;;;;;;12.67;11.40;;;17.60;72.40;;;;;;5097777;28;20443;-56
2023/06/01 03:23:43;;;;;;;11.67;10.47;;;17.50;72.40;;;;;;5097365;28;20455;-56
2023/06/01 03:26:12;;;;;;;13.00;10.27;;;17.50;72.50;;;;;;5096555;28;20470;-56
2023/06/01 03:28:40;;;;;;;15.73;11.70;;;17.40;72.80;;;;;;5096497;28;20454;-56
2023/06/01 03:31:07;;;;;;;13.50;10.63;;;17.40;73.00;;;;;;5096225;28;20452;-56
2023/06/01 03:33:34;;;;;;;14.13;12.63;;;17.40;73.30;;;;;;5096283;28;20444;-56
2023/06/01 03:36:01;;;;;;;15.37;11.60;;;17.30;73.60;;;;;;5096309;28;20464;-56
2023/06/01 03:38:28;;;;;;;16.03;12.33;;;17.30;73.90;;;;;;5094387;28;20971;-57
2023/06/01 03:40:54;;;;;;;13.80;11.83;;;17.20;74.10;;;;;;5096254;28;20452;-56
2023/06/01 03:43:21;;;;;;;12.10;10.60;;;17.20;74.20;;;;;;5095886;28;20497;-56
2023/06/01 03:45:49;;;;;;;15.17;12.17;;;17.20;74.10;;;;;;5095913;28;20460;-56
2023/06/01 03:48:16;;;;;;;15.00;12.33;;;17.20;74.30;;;;;;5095648;28;20477;-57
2023/06/01 03:50:43;;;;;;;18.00;12.73;;;17.20;74.60;;;;;;5095746;28;20444;-57
2023/06/01 03:53:09;;;;;;;17.07;12.50;;;17.20;74.60;;;;;;5095444;28;20444;-57
2023/06/01 03:55:36;;;;;;;13.83;12.20;;;17.20;74.70;;;;;;5095228;28;20488;-57
2023/06/01 03:58:04;;;;;;;14.40;12.50;;;17.20;74.80;;;;;;5095403;28;20485;-57
2023/06/01 04:00:31;;;;;;;17.90;13.57;;;17.20;74.90;;;;;;5095060;28;20930;-56
2023/06/01 04:03:01;;;;;;;16.30;12.70;;;17.20;74.90;;;;;;5095290;28;20448;-56
2023/06/01 04:05:27;;;;;;;16.17;12.37;;;17.20;75.10;;;;;;5095261;28;20475;-57
2023/06/01 04:07:55;;;;;;;16.93;13.20;;;17.10;75.10;;;;;;5095300;28;20470;-56
2023/06/01 04:10:22;;;;;;;19.80;13.83;;;17.20;75.90;;;;;;5094975;28;20493;-56
2023/06/01 04:12:50;;;;;;;16.50;13.33;;;17.20;75.00;;;;;;5095187;28;20439;-56
2023/06/01 04:15:20;;;;;;;17.97;15.30;;;17.20;75.10;;;;;;5094980;28;20486;-57
2023/06/01 04:17:47;;;;;;;18.40;13.67;;;17.10;75.00;;;;;;5094947;28;20475;-56
2023/06/01 04:20:16;;;;;;;21.33;15.80;;;17.10;75.40;;;;;;5094925;28;20448;-57
2023/06/01 04:22:44;;;;;;;20.00;15.57;;;17.10;75.50;;;;;;5094838;28;20447;-57
2023/06/01 04:25:16;;;;;;;27.50;19.87;;;17.10;75.80;;;;;;5094830;28;20440;-57
2023/06/01 04:27:45;;;;;;;25.67;20.87;;;17.10;76.30;;;;;;5094639;28;20924;-57
2023/06/01 04:30:13;;;;;;;34.23;26.37;;;17.10;76.70;;;;;;5094745;28;20815;-57
2023/06/01 04:32:41;;;;;;;42.90;29.93;;;17.10;77.00;;;;;;5094935;28;20451;-57
2023/06/01 04:35:09;;;;;;;46.60;30.90;;;17.20;77.30;;;;;;5094688;28;20541;-56
2023/06/01 04:37:39;;;;;;;43.40;32.20;;;17.10;77.10;;;;;;5094821;28;20447;-56
2023/06/01 04:40:07;;;;;;;48.87;36.20;;;17.20;77.20;;;;;;5095285;28;20440;-57
2023/06/01 04:42:34;;;;;;;45.10;31.70;;;17.20;77.10;;;;;;5094533;28;20451;-57
2023/06/01 04:45:04;;;;;;;52.00;35.87;;;17.20;77.00;;;;;;5094515;28;20448;-57
2023/06/01 04:47:31;;;;;;;65.03;39.63;;;17.30;76.90;;;;;;5094432;28;20584;-56
2023/06/01 04:49:57;;;;;;;56.87;41.03;;;17.30;77.10;;;;;;5093594;28;20937;-57
2023/06/01 04:52:24;;;;;;;55.50;39.77;;;17.30;76.90;;;;;;5094313;28;20448;-57
2023/06/01 04:54:52;;;;;;;70.97;44.80;;;17.30;76.90;;;;;;5094179;28;20483;-57
2023/06/01 04:57:19;;;;;;;68.53;46.20;;;17.30;76.70;;;;;;5094186;28;20463;-57
2023/06/01 04:59:46;;;;;;;63.50;43.33;;;17.40;76.70;;;;;;5094157;28;20452;-57
2023/06/01 05:02:13;;;;;;;66.83;46.03;;;17.40;76.70;;;;;;5094136;28;20450;-57
2023/06/01 05:04:39;;;;;;;63.57;49.90;;;17.40;76.30;;;;;;5093985;28;20447;-56
2023/06/01 05:07:06;;;;;;;70.07;48.70;;;17.50;76.00;;;;;;5093957;28;20495;-57
2023/06/01 05:09:33;;;;;;;64.30;47.07;;;17.50;76.00;;;;;;5093944;28;20443;-57
2023/06/01 05:12:01;;;;;;;69.43;48.37;;;17.60;75.90;;;;;;5093659;28;20520;-57
2023/06/01 05:14:28;;;;;;;69.57;50.83;;;17.60;75.80;;;;;;5093855;28;20494;-56
2023/06/01 05:16:55;;;;;;;63.47;46.40;;;17.70;75.50;;;;;;5093788;28;20471;-56
2023/06/01 05:19:22;;;;;;;65.93;45.07;;;17.70;76.50;;;;;;5093835;28;20443;-56
2023/06/01 05:21:48;;;;;;;67.43;48.77;;;17.70;75.30;;;;;;5093857;28;20862;-56
2023/06/01 05:24:15;;;;;;;60.20;48.30;;;17.80;75.30;;;;;;5093750;28;20826;-56
2023/06/01 05:26:42;;;;;;;64.23;49.53;;;17.80;75.00;;;;;;5093635;28;20464;-56
2023/06/01 05:29:10;;;;;;;70.10;51.00;;;17.90;75.00;;;;;;5093383;28;20831;-56
2023/06/01 05:31:37;;;;;;;62.00;45.47;;;18.00;74.60;;;;;;5093529;28;20935;-56
2023/06/01 05:34:03;;;;;;;57.60;45.13;;;17.90;74.40;;;;;;5093613;28;20451;-56
2023/06/01 05:36:31;;;;;;;75.23;47.30;;;17.90;73.50;;;;;;5093548;28;20495;-56
2023/06/01 05:38:58;;;;;;;68.87;47.97;;;17.90;73.30;;;;;;5093764;28;20456;-56
2023/06/01 05:41:25;;;;;;;58.23;44.73;;;18.00;73.40;;;;;;5093720;28;20440;-56
2023/06/01 05:43:52;;;;;;;67.33;49.73;;;18.00;73.30;;;;;;5093697;28;20482;-56
2023/06/01 05:46:20;;;;;;;62.50;47.27;;;18.00;73.00;;;;;;5093760;28;20471;-56
2023/06/01 05:48:47;;;;;;;62.80;50.00;;;18.10;72.70;;;;;;5095109;28;20476;-57
2023/06/01 05:51:14;;;;;;;68.57;52.17;;;18.10;72.10;;;;;;5094871;28;20450;-56
2023/06/01 05:53:42;;;;;;;62.00;49.57;;;18.10;71.40;;;;;;5093408;28;20448;-56
2023/06/01 05:56:08;;;;;;;60.23;49.50;;;18.10;70.80;;;;;;5093168;28;20488;-56
2023/06/01 05:58:35;;;;;;;61.43;47.67;;;18.10;70.90;;;;;;5093364;28;20531;-56
2023/06/01 06:01:02;;;;;;;56.10;46.73;;;18.20;71.10;;;;;;5093388;28;20471;-56
2023/06/01 06:03:30;;;;;;;60.30;48.17;;;18.20;70.80;;;;;;5097120;28;20447;-56
2023/06/01 06:05:57;;;;;;;60.43;47.13;;;18.30;71.00;;;;;;5097496;28;20491;-56
2023/06/01 06:08:23;;;;;;;56.90;46.20;;;18.30;70.50;;;;;;5097334;28;20457;-56
2023/06/01 06:10:50;;;;;;;58.43;46.90;;;18.30;70.30;;;;;;5097413;28;20839;-56
2023/06/01 06:13:17;;;;;;;54.90;45.93;;;18.40;70.00;;;;;;5097425;28;20454;-56
2023/06/01 06:15:43;;;;;;;59.73;47.00;;;18.40;69.10;;;;;;5097251;28;20491;-56
2023/06/01 06:18:10;;;;;;;57.13;46.07;;;18.40;68.60;;;;;;5096917;28;20949;-56
2023/06/01 06:20:38;;;;;;;61.50;46.10;;;18.40;69.20;;;;;;5097179;28;20888;-56
2023/06/01 06:23:05;;;;;;;58.87;46.37;;;18.40;68.90;;;;;;5097139;28;20451;-56
2023/06/01 06:25:31;;;;;;;57.70;47.83;;;18.40;68.50;;;;;;5097086;28;20463;-56
2023/06/01 06:27:58;;;;;;;59.00;49.27;;;18.50;68.50;;;;;;5097091;28;20448;-56
2023/06/01 06:30:25;;;;;;;56.17;46.37;;;18.60;68.40;;;;;;5097185;28;20811;-56
2023/06/01 06:32:51;;;;;;;60.97;48.73;;;18.60;68.30;;;;;;5097931;28;20821;-56
2023/06/01 06:35:18;;;;;;;57.40;49.50;;;18.70;68.10;;;;;;5097135;28;20480;-56
2023/06/01 06:37:46;;;;;;;58.10;48.50;;;18.80;68.10;;;;;;5097221;28;20444;-56
2023/06/01 06:40:13;;;;;;;60.93;48.67;;;18.80;67.50;;;;;;5097097;28;20451;-56
2023/06/01 06:42:41;;;;;;;55.20;46.50;;;18.90;67.20;;;;;;5096999;28;20504;-56
2023/06/01 06:45:08;;;;;;;61.30;49.73;;;19.00;66.80;;;;;;5096987;28;20451;-56
2023/06/01 06:47:35;;;;;;;53.87;46.60;;;19.10;66.20;;;;;;5096948;28;20448;-56
2023/06/01 06:50:02;;;;;;;55.93;47.10;;;19.30;65.20;;;;;;5096948;28;20435;-57
2023/06/01 06:52:28;;;;;;;68.37;49.67;;;19.40;64.80;;;;;;5096819;28;20443;-56
2023/06/01 06:54:56;;;;;;;55.20;45.40;;;19.50;64.20;;;;;;5096675;28;20486;-56
2023/06/01 06:57:23;;;;;;;48.33;43.27;;;19.60;63.40;;;;;;5096276;28;20842;-57
2023/06/01 06:59:50;;;;;;;48.80;42.13;;;19.70;63.20;;;;;;5096611;28;20459;-57
2023/06/01 07:02:17;;;;;;;51.33;43.27;;;19.70;62.50;;;;;;5096152;28;21010;-57
2023/06/01 07:04:44;;;;;;;47.20;42.37;;;19.70;61.60;;;;;;5096546;28;20458;-57
2023/06/01 07:07:10;;;;;;;48.77;41.63;;;19.80;61.10;;;;;;5096523;28;20468;-57
2023/06/01 07:09:37;;;;;;;47.50;42.37;;;19.90;60.90;;;;;;5096321;28;20456;-56
2023/06/01 07:12:06;;;;;;;46.20;40.60;;;20.00;60.40;;;;;;5096221;28;20459;-57
2023/06/01 07:14:33;;;;;;;44.70;40.10;;;20.00;60.50;;;;;;5096405;28;20483;-56
2023/06/01 07:17:00;;;;;;;47.70;42.50;;;20.10;60.10;;;;;;5096236;28;20562;-57
2023/06/01 07:19:32;;;;;;;48.57;43.23;;;20.20;59.90;;;;;;5096169;28;20463;-57
2023/06/01 07:21:59;;;;;;;48.53;43.37;;;20.30;59.30;;;;;;5096283;28;20432;-56
2023/06/01 07:24:27;;;;;;;47.53;42.67;;;20.40;59.50;;;;;;5096061;28;20454;-57
2023/06/01 07:26:55;;;;;;;46.63;41.93;;;20.40;58.70;;;;;;5096112;28;20517;-57
2023/06/01 07:29:23;;;;;;;49.00;44.00;;;20.40;58.00;;;;;;5096124;28;20839;-56
2023/06/01 07:31:51;;;;;;;49.60;44.17;;;20.40;58.40;;;;;;5095959;28;20448;-57
2023/06/01 07:34:18;;;;;;;46.90;42.03;;;20.50;58.10;;;;;;5095742;28;20479;-56
2023/06/01 07:36:46;;;;;;;47.13;41.90;;;20.50;57.70;;;;;;5095907;28;20574;-56
2023/06/01 07:39:14;;;;;;;50.33;43.40;;;20.50;57.50;;;;;;5095864;28;20448;-57
2023/06/01 07:41:42;;;;;;;48.13;43.03;;;20.60;58.30;;;;;;5095771;28;20443;-57
2023/06/01 07:44:09;;;;;;;45.47;40.87;;;20.70;57.90;;;;;;5095383;28;20455;-57
2023/06/01 07:46:37;;;;;;;42.70;38.40;;;20.80;57.30;;;;;;5095735;28;20871;-57
2023/06/01 07:49:04;;;;;;;43.57;39.23;;;20.80;57.20;;;;;;5095791;28;20466;-57
2023/06/01 07:51:31;;;;;;;41.03;36.83;;;20.90;57.10;;;;;;5095745;28;20973;-57
2023/06/01 07:53:59;;;;;;;38.70;34.90;;;21.10;56.60;;;;;;5095798;28;20552;-57
2023/06/01 07:56:27;;;;;;;36.10;32.60;;;21.30;56.40;;;;;;5095418;28;20498;-57
2023/06/01 07:58:54;;;;;;;38.77;35.07;;;21.50;55.80;;;;;;5095517;28;20452;-57
2023/06/01 08:01:20;;;;;;;43.03;36.20;;;21.70;55.30;;;;;;5095436;28;20448;-57
2023/06/01 08:03:50;;;;;;;39.43;35.53;;;21.90;54.80;;;;;;5095871;28;20808;-57
2023/06/01 08:06:16;;;;;;;37.47;33.57;;;22.20;54.50;;;;;;5095271;28;20533;-57
2023/06/01 08:08:43;;;;;;;36.40;32.97;;;22.30;54.00;;;;;;5094978;28;20450;-57
2023/06/01 08:11:10;;;;;;;33.43;30.13;;;22.40;52.80;;;;;;5094812;28;20980;-57
2023/06/01 08:13:37;;;;;;;32.33;29.30;;;22.50;53.00;;;;;;5095347;28;20454;-57
2023/06/01 08:16:04;;;;;;;31.60;28.73;;;22.70;53.10;;;;;;5094725;28;20989;-57
2023/06/01 08:18:31;;;;;;;31.90;28.80;;;22.90;52.70;;;;;;5095074;28;20444;-56
2023/06/01 08:21:00;;;;;;;30.50;27.60;;;23.10;52.00;;;;;;5095008;28;20444;-56
2023/06/01 08:23:27;;;;;;;31.13;27.83;;;23.30;51.50;;;;;;5094848;28;20534;-57
2023/06/01 08:25:53;;;;;;;31.60;28.27;;;23.50;51.00;;;;;;5093874;28;20464;-57
2023/06/01 08:28:20;;;;;;;30.53;27.53;;;23.60;50.70;;;;;;5094913;28;20443;-55
2023/06/01 08:30:47;;;;;;;33.77;30.13;;;23.80;49.90;;;;;;5094453;28;20833;-55
2023/06/01 08:33:15;;;;;;;30.53;27.10;;;23.90;48.90;;;;;;5094760;28;20448;-55
2023/06/01 08:35:41;;;;;;;27.07;24.37;;;23.90;48.60;;;;;;5094704;28;20574;-55
2023/06/01 08:38:09;;;;;;;27.13;24.50;;;23.90;48.90;;;;;;5094655;28;20492;-55
2023/06/01 08:40:36;;;;;;;25.53;23.20;;;24.00;48.90;;;;;;5094598;28;20876;-55
2023/06/01 08:43:13;;;;;;;24.27;21.77;;;24.20;49.50;;;;;;5094713;28;20444;-55
2023/06/01 08:45:41;;;;;;;23.27;21.07;;;24.30;48.70;;;;;;5094514;28;20546;-56
2023/06/01 08:48:09;;;;;;;19.97;18.03;;;24.50;47.80;;;;;;5094595;28;20448;-56
2023/06/01 08:50:36;;;;;;;22.17;19.97;;;24.60;47.50;;;;;;5094417;28;20448;-56
2023/06/01 08:53:05;;;;;;;20.73;18.60;;;24.70;47.00;;;;;;5094950;28;20509;-56
2023/06/01 08:55:34;;;;;;;20.07;18.17;;;24.90;46.70;;;;;;5094405;28;20522;-56
2023/06/01 08:58:01;;;;;;;16.37;14.93;;;24.90;45.70;;;;;;5094491;28;20454;-56
2023/06/01 09:00:30;;;;;;;18.30;16.63;;;24.90;44.90;;;;;;5094348;28;20462;-56
2023/06/01 09:02:57;;;;;;;14.67;13.13;;;25.00;45.80;;;;;;5094738;28;20444;-56
2023/06/01 09:05:24;;;;;;;17.23;14.53;;;25.20;45.60;;;;;;5094324;28;20474;-56
2023/06/01 09:07:51;;;;;;;14.87;13.30;;;25.30;45.60;;;;;;5094250;28;20455;-56
2023/06/01 09:10:23;;;;;;;14.57;13.07;;;25.60;45.30;;;;;;5094087;28;20451;-56
2023/06/01 09:12:55;;;;;;;13.50;12.20;;;25.80;45.10;;;;;;5094187;28;20439;-56
2023/06/01 09:15:23;;;;;;;13.43;12.10;;;26.10;44.40;;;;;;5094063;28;20814;-59
2023/06/01 09:17:51;;;;;;;14.93;13.33;;;26.40;43.50;;;;;;5094178;28;20817;-56
2023/06/01 09:20:24;;;;;;;15.00;13.60;;;26.70;42.90;;;;;;5094052;28;20459;-56
2023/06/01 09:22:51;;;;;;;13.47;11.90;;;26.90;42.50;;;;;;5094083;28;20425;-56
2023/06/01 09:25:23;;;;;;;17.20;15.50;;;27.10;42.00;;;;;;5093784;28;20471;-56
2023/06/01 09:27:52;;;;;;;16.20;14.50;;;27.20;41.00;;;;;;5093943;28;20432;-56
2023/06/01 09:30:21;;;;;;;15.67;14.10;;;27.40;40.20;;;;;;5093835;28;20458;-56
2023/06/01 09:32:50;;;;;;;14.23;12.50;;;27.50;39.90;;;;;;5093760;28;20497;-56
2023/06/01 09:35:17;;;;;;;14.57;12.13;;;27.70;39.90;;;;;;5093658;28;20447;-56
2023/06/01 09:37:55;;;;;;;13.37;12.00;;;27.90;39.60;;;;;;5093605;28;20472;-56
2023/06/01 09:40:23;;;;;;;15.50;12.63;;;28.10;39.70;;;;;;5093765;28;20527;-56
2023/06/01 09:42:50;;;;;;;15.07;12.17;;;28.40;39.50;;;;;;5093301;28;20447;-56
2023/06/01 09:45:21;;;;;;;17.80;14.87;;;28.60;38.70;;;;;;5093586;28;20792;-56
2023/06/01 09:47:48;;;;;;;22.70;13.97;;;28.80;37.80;;;;;;5093683;28;20417;-56
2023/06/01 09:50:34;;;;;;;12.77;11.67;;;29.00;36.60;;;;;;5093296;28;20938;-56
2023/06/01 09:53:01;;;;;;;13.40;12.00;;;28.90;36.50;;;;;;5094777;28;20458;-56
2023/06/01 09:55:28;;;;;;;14.00;11.27;;;29.00;36.60;;;;;;5094075;28;20472;-56
2023/06/01 09:58:18;;;;;;;12.60;11.40;;;29.10;36.30;;;;;;5094033;28;20480;-56
2023/06/01 10:00:47;;;;;;;13.50;11.83;;;29.50;36.10;;;;;;5094017;28;20428;-56
2023/06/01 10:03:15;;;;;;;11.97;8.53;;;29.70;34.50;;;;;;5093919;28;20440;-56
2023/06/01 10:05:43;;;;;;;15.30;9.90;;;29.90;34.70;;;;;;5094184;28;20470;-56
2023/06/01 10:08:12;;;;;;;10.83;9.73;;;30.30;34.90;;;;;;5093390;28;20497;-56
2023/06/01 10:10:40;;;;;;;20.13;12.60;;;30.60;33.80;;;;;;5093020;28;21000;-56
2023/06/01 10:13:06;;;;;;;19.00;13.20;;;30.90;32.90;;;;;;5093473;28;20438;-56
2023/06/01 10:15:33;;;;;;;15.70;12.90;;;31.20;33.00;;;;;;5093347;28;20458;-56
2023/06/01 10:18:02;;;;;;;12.43;11.33;;;31.50;32.10;;;;;;5093207;28;20486;-57
2023/06/01 10:20:30;;;;;;;10.20;9.30;;;31.60;30.60;;;;;;5092964;28;20508;-56
2023/06/01 10:22:57;;;;;;;14.97;10.20;;;31.80;31.50;;;;;;5093275;28;20451;-56
2023/06/01 10:25:25;;;;;;;10.90;9.80;;;32.10;31.20;;;;;;5093221;28;20470;-56
2023/06/01 10:27:56;;;;;;;12.67;11.67;;;32.50;30.60;;;;;;5092839;28;20956;-57
2023/06/01 10:30:23;;;;;;;12.63;11.37;;;32.90;30.10;;;;;;5093188;28;20508;-56
2023/06/01 10:32:50;;;;;;;11.70;10.60;;;33.20;29.10;;;;;;5093270;28;20454;-56
2023/06/01 10:35:53;;;;;;;10.93;9.13;;;33.60;29.00;;;;;;5092977;28;20530;-56
2023/06/01 10:38:26;;;;;;;12.80;11.50;;;34.10;28.60;;;;;;5093325;28;20524;-56
2023/06/01 10:40:52;;;;;;;12.63;10.70;;;34.50;27.40;;;;;;5093209;28;20450;-56
2023/06/01 10:43:41;;;;;;;14.70;10.30;;;34.70;26.90;;;;;;5092760;28;20945;-56
2023/06/01 10:46:35;;;;;;;12.07;10.87;;;35.10;26.50;;;;;;5092901;28;20474;-56
2023/06/01 10:49:03;;;;;;;12.97;10.80;;;35.60;25.80;;;;;;5095945;28;20480;-56
2023/06/01 10:51:31;;;;;;;23.60;11.87;;;35.60;25.40;;;;;;5096692;28;20878;-56
2023/06/01 10:54:29;;;;;;;10.50;8.43;;;35.90;25.30;;;;;;5096371;28;20447;-56
2023/06/01 10:57:26;;;;;;;10.70;8.80;;;36.30;25.00;;;;;;5096617;28;20487;-56
2023/06/01 11:00:12;;;;;;;11.00;7.70;;;37.00;24.90;;;;;;5050774;28;20205;-56
2023/06/01 11:02:48;;;;;;;12.23;9.10;;;37.60;24.10;;;;;;5096478;28;20205;-56
2023/06/01 11:05:35;;;;;;;8.82;7.93;;;38.00;23.10;;;;;;5096502;28;20295;-56
2023/06/01 11:08:03;;;;;;;12.05;8.30;;;38.60;22.60;;;;;;5096426;28;20204;-56
2023/06/01 11:10:58;;;;;;;10.98;9.20;;;39.00;21.90;;;;;;5096271;28;20197;-56
2023/06/01 11:13:27;;;;;;;8.02;7.22;;;39.30;21.40;;;;;;5096387;28;20201;-56
2023/06/01 11:16:28;;;;;;;15.35;9.98;;;39.50;22.00;;;;;;5096401;28;20225;-56
2023/06/01 11:18:58;;;;;;;11.05;9.60;;;40.00;21.80;;;;;;5096231;28;20200;-56
2023/06/01 11:21:27;;;;;;;9.23;8.32;;;40.00;21.30;;;;;;5096124;28;20619;-57
2023/06/01 11:23:57;;;;;;;9.32;8.40;;;40.20;20.80;;;;;;5096296;28;20201;-57
2023/06/01 11:26:30;;;;;;;11.20;8.80;;;40.50;20.90;;;;;;5096617;28;20232;-57
2023/06/01 11:29:05;;;;;;;10.35;9.55;;;40.70;20.20;;;;;;5096051;28;20189;-57
2023/06/01 11:31:37;;;;;;;13.55;9.85;;;40.70;19.60;;;;;;5096537;28;20189;-57
2023/06/01 11:34:04;;;;;;;8.95;8.07;;;40.60;20.00;;;;;;5095914;28;20194;-56
2023/06/01 11:36:36;;;;;;;11.63;10.25;;;40.70;19.80;;;;;;5095888;28;20232;-56
2023/06/01 11:39:07;;;;;;;10.93;8.75;;;40.90;20.40;;;;;;5095888;28;20189;-56
2023/06/01 11:41:35;;;;;;;11.18;9.02;;;41.00;19.90;;;;;;5095541;28;20635;-56
2023/06/01 11:44:01;;;;;;;8.23;7.28;;;41.10;20.20;;;;;;5095273;28;20681;-56
2023/06/01 11:46:28;;;;;;;11.23;7.93;;;41.30;19.70;;;;;;5095658;28;20240;-56
2023/06/01 11:49:04;;;;;;;9.38;8.10;;;41.70;19.90;;;;;;5095282;28;20697;-56
2023/06/01 11:51:32;;;;;;;12.77;9.30;;;42.10;19.10;;;;;;5096480;28;20286;-57
2023/06/01 11:54:01;;;;;;;9.20;7.75;;;42.30;18.60;;;;;;5095510;28;20212;-56
2023/06/01 11:56:35;;;;;;;10.48;8.77;;;42.50;18.60;;;;;;5095327;28;20227;-56
2023/06/01 11:59:08;;;;;;;8.05;7.25;;;42.70;18.10;;;;;;5094458;28;20191;-56
2023/06/01 12:01:36;;;;;;;9.32;8.45;;;42.90;18.00;;;;;;5095340;28;20240;-56
2023/06/01 12:04:04;;;;;;;10.00;8.63;;;43.00;18.00;;;;;;5095001;28;20201;-56
2023/06/01 12:06:31;;;;;;;8.20;7.40;;;42.80;17.50;;;;;;5095289;28;20225;-56
2023/06/01 12:08:58;;;;;;;10.05;8.75;;;42.80;18.30;;;;;;5095361;28;20247;-56
2023/06/01 12:11:27;;;;;;;11.18;7.72;;;42.80;18.80;;;;;;5094912;28;20213;-57
2023/06/01 12:13:55;;;;;;;10.52;9.45;;;42.90;18.20;;;;;;5095262;28;20225;-56
2023/06/01 12:16:22;;;;;;;10.32;8.18;;;43.00;17.60;;;;;;5094845;28;20268;-56
2023/06/01 12:18:49;;;;;;;8.43;6.65;;;43.00;17.60;;;;;;5094717;28;20674;-57
2023/06/01 12:21:17;;;;;;;8.23;7.47;;;43.30;18.70;;;;;;5094644;28;20205;-56
2023/06/01 12:23:51;;;;;;;10.93;7.57;;;43.60;17.90;;;;;;5094567;28;20224;-56
2023/06/01 12:26:18;;;;;;;7.65;6.95;;;43.90;17.40;;;;;;5094997;28;20600;-56
2023/06/01 12:28:48;;;;;;;8.88;7.97;;;44.10;16.40;;;;;;5094820;28;20254;-56
2023/06/01 12:31:17;;;;;;;8.68;7.78;;;44.30;17.10;;;;;;5094877;28;20181;-56
2023/06/01 12:33:45;;;;;;;9.00;7.28;;;44.40;17.30;;;;;;5094711;28;20574;-56
2023/06/01 12:36:29;;;;;;;11.15;8.27;;;44.70;17.20;;;;;;5094646;28;20217;-57
2023/06/01 12:38:57;;;;;;;9.27;7.53;;;44.90;16.70;;;;;;5094645;28;20272;-56
2023/06/01 12:41:24;;;;;;;8.35;7.05;;;44.60;16.20;;;;;;5094637;28;20197;-56